Historyczne dane pomiarowe

Dodano dane terminowe – wersja testowa.

Dane z okresu 1951-2019

Wersja bazy: 1.34 [2019-03-16, lista zmian], aktualizacja planowana na 2019-04-15

Dane meteo z obszaru Polski uzyskane na podstawie danych udostępnionych przez Instytut Meteorologii i Gospodarki Wodnej – Państwowy Instytut Badawczy.

 

Wybierz Datę:    

       

TemperaturaWilgotnośćZachmurzenieWiatrCiśnienieWidzialnośćZjawiska
 Data    tng td wb rh cc ccl cl cm ch dir g1 g2 mslp ppp      
1999-07-27 00:00:00 10.9--- 10.9 10.9100wxwx5wx--- 804.2 2.3---wxw1
1999-07-27 01:00:00 10.1--- 10.1 10.1100wxwx5wx--- 804.2----wxw1
1999-07-27 02:00:00 10.3--- 10.3 10.3100wxwx5wx--- 803.7----wxw1
1999-07-27 03:00:00 10.3--- 10.3 10.3100wxwx5wx--- 803.6----wxw1
1999-07-27 04:00:00 10.3--- 10.3 10.3100wxwx5wx--- 803.7----wxw1
1999-07-27 05:00:00 10.5--- 10.5 10.5100wxwx4wx--- 803.6----wxw1
1999-07-27 06:00:00 10.4--- 10.4 10.4100wxwx5wx--- 803.8 3.9---wxw1
1999-07-27 07:00:00 10.5--- 10.5 10.5100wxwx5wx--- 804.0----wxw1
1999-07-27 08:00:00 10.1--- 10.1 10.1100wxwx5wx--- 804.2----wxw1
1999-07-27 09:00:00 10.1--- 10.1 10.1100wxwx5wx--- 804.5----wxw1
1999-07-27 10:00:00 10.0--- 10.0 10.0100wxwx5wx--- 804.6----wxw1
1999-07-27 11:00:00 10.0--- 10.0 10.0100wxwx6wx--- 804.4----wxw1
1999-07-27 12:00:00 9.5--- 9.5 9.5100wxwx5wx--- 804.4 7.6---wxw1
1999-07-27 13:00:00 9.5--- 9.5 9.5100wxwx5wx--- 804.2----wxw1
1999-07-27 14:00:00 9.6--- 9.6 9.6100wxwx5wx--- 804.3----wxw1
1999-07-27 15:00:00 10.1--- 10.1 10.1100wxwx4wx--- 804.5----wxw1
1999-07-27 16:00:00 9.7--- 9.7 9.7100wxwx6wx--- 804.4----wxw1
1999-07-27 17:00:00 9.6--- 9.6 9.6100wxwx5wx--- 804.5----wxw1
1999-07-27 18:00:00 9.1--- 9.1 9.1100wxwx5wx--- 804.5 8.0---wxw1
1999-07-27 19:00:00 8.7--- 8.6 8.7100wxwx5wx--- 804.5----wxw1
1999-07-27 20:00:00 8.6--- 8.6 8.6100wxwx6wx--- 804.7----wxw1
1999-07-27 21:00:00 8.4--- 8.4 8.4100wxwx5wx--- 804.6----wxw1
1999-07-27 22:00:00 8.2--- 8.2 8.2100wxwx5wx--- 804.6----wxw1
1999-07-27 23:00:00 8.3--- 8.3 8.3100wxwx5wx--- 804.3----wxw1

 

Źródłem pochodzenia danych jest Instytut Meteorologii i Gospodarki Wodnej – Państwowy Instytut Badawczy. Dane Instytutu Meteorologii i Gospodarki Wodnej – Państwowego Instytutu Badawczego zostały przetworzone.

Dane źródłowe można odnaleźć na stronie https://dane.imgw.pl